createdAt,value
2017-05-12T00:00:13.341Z,992.98
2017-05-12T00:01:13.349Z,992.98
2017-05-12T00:02:13.355Z,993.02
2017-05-12T00:03:13.363Z,993.03
2017-05-12T00:04:13.454Z,993.04
2017-05-12T00:05:13.377Z,993.05
2017-05-12T00:06:13.382Z,993.03
2017-05-12T00:07:13.390Z,993.04
2017-05-12T00:08:13.396Z,993.03
2017-05-12T00:09:13.404Z,993.06
2017-05-12T00:10:13.410Z,993.03
2017-05-12T00:11:13.418Z,993.03
2017-05-12T00:12:13.424Z,993.08
2017-05-12T00:13:13.432Z,993.02
2017-05-12T00:14:13.439Z,993.03
2017-05-12T00:15:13.446Z,993.02
2017-05-12T00:16:13.453Z,993.05
2017-05-12T00:17:13.458Z,993.01
2017-05-12T00:18:13.467Z,993.08
2017-05-12T00:19:13.474Z,993.06
2017-05-12T00:20:13.480Z,993.05
2017-05-12T00:21:13.487Z,993.07
2017-05-12T00:22:13.494Z,993.09
2017-05-12T00:23:13.502Z,993.06
2017-05-12T00:24:13.558Z,993.1
2017-05-12T00:25:13.515Z,993.11
2017-05-12T00:26:13.522Z,993.09
2017-05-12T00:27:13.529Z,993.09
2017-05-12T00:28:13.535Z,993.12
2017-05-12T00:29:13.543Z,993.15
2017-05-12T00:30:13.550Z,993.12
2017-05-12T00:31:13.557Z,993.15
2017-05-12T00:32:13.566Z,993.14
2017-05-12T00:33:13.569Z,993.18
2017-05-12T00:34:13.577Z,993.18
2017-05-12T00:35:13.582Z,993.21
2017-05-12T00:36:13.591Z,993.19
2017-05-12T00:37:13.598Z,993.19
2017-05-12T00:38:13.605Z,993.15
2017-05-12T00:39:13.612Z,993.22
2017-05-12T00:40:13.620Z,993.18
2017-05-12T00:41:13.625Z,993.18
2017-05-12T00:42:13.633Z,993.16
2017-05-12T00:43:13.692Z,993.16
2017-05-12T00:44:13.647Z,993.18
2017-05-12T00:45:13.653Z,993.18
2017-05-12T00:46:13.660Z,993.17
2017-05-12T00:47:13.666Z,993.21
2017-05-12T00:48:13.675Z,993.15
2017-05-12T00:49:13.680Z,993.18
2017-05-12T00:50:13.687Z,993.16
2017-05-12T00:51:13.695Z,993.19
2017-05-12T00:52:13.703Z,993.18
2017-05-12T00:53:13.709Z,993.23
2017-05-12T00:54:13.716Z,993.15
2017-05-12T00:55:13.724Z,993.18
2017-05-12T00:56:13.729Z,993.14
2017-05-12T00:57:13.735Z,993.11
2017-05-12T00:58:13.745Z,993.13
2017-05-12T00:59:13.751Z,993.15
2017-05-12T01:00:13.758Z,993.08
2017-05-12T01:01:13.764Z,993.14
2017-05-12T01:02:13.772Z,993.14
2017-05-12T01:03:13.779Z,993.21
2017-05-12T01:04:13.785Z,993.16
2017-05-12T01:05:13.792Z,993.17
2017-05-12T01:06:13.801Z,993.13
2017-05-12T01:07:13.806Z,993.07
2017-05-12T01:08:13.813Z,993.12
2017-05-12T01:09:13.819Z,993.14
2017-05-12T01:10:13.827Z,993.12
2017-05-12T01:11:13.833Z,993.15
2017-05-12T01:12:13.839Z,993.13
2017-05-12T01:13:13.849Z,993.14
2017-05-12T01:14:13.904Z,993.15
2017-05-12T01:15:13.861Z,993.13
2017-05-12T01:16:13.868Z,993.1
2017-05-12T01:17:13.874Z,993.11
2017-05-12T01:18:13.882Z,993.12
2017-05-12T01:19:13.888Z,993.12
2017-05-12T01:20:13.894Z,993.12
2017-05-12T01:21:13.902Z,993.09
2017-05-12T01:22:13.958Z,993.06
2017-05-12T01:23:13.917Z,993.07
2017-05-12T01:24:13.923Z,993.05
2017-05-12T01:25:13.929Z,993.02
2017-05-12T01:26:13.936Z,993.04
2017-05-12T01:27:13.943Z,993.04
2017-05-12T01:28:13.950Z,993.02
2017-05-12T01:29:14.002Z,993.06
2017-05-12T01:30:13.964Z,993.07
2017-05-12T01:31:13.970Z,993.04
2017-05-12T01:32:13.979Z,993.07
2017-05-12T01:33:13.985Z,993.07
2017-05-12T01:34:13.992Z,993.07
2017-05-12T01:35:13.997Z,993.05
2017-05-12T01:36:14.004Z,993.05
2017-05-12T01:37:14.011Z,993.02
2017-05-12T01:38:14.018Z,993.03
2017-05-12T01:39:14.026Z,993.02
2017-05-12T01:40:14.031Z,993.04
2017-05-12T01:41:14.038Z,993.04
2017-05-12T01:42:14.046Z,993.07
2017-05-12T01:43:14.053Z,993.05
2017-05-12T01:44:14.060Z,993.02
2017-05-12T01:45:14.065Z,993
2017-05-12T01:46:14.124Z,993.06
2017-05-12T01:47:14.080Z,993.03
2017-05-12T01:48:14.087Z,993
2017-05-12T01:49:14.094Z,992.97
2017-05-12T01:50:14.150Z,992.99
2017-05-12T01:51:14.107Z,993
2017-05-12T01:52:14.115Z,993.01
2017-05-12T01:53:14.122Z,992.99
2017-05-12T01:54:14.137Z,992.99
2017-05-12T01:55:14.135Z,993.02
2017-05-12T01:56:14.145Z,993.06
2017-05-12T01:57:14.149Z,993.01
2017-05-12T01:58:14.154Z,993.02
2017-05-12T01:59:14.163Z,993
2017-05-12T02:00:14.219Z,992.99
2017-05-12T02:01:14.176Z,992.97
2017-05-12T02:02:14.181Z,992.99
2017-05-12T02:03:14.238Z,992.96
2017-05-12T02:04:14.196Z,992.94
2017-05-12T02:05:14.255Z,992.96
2017-05-12T02:06:14.210Z,992.94
2017-05-12T02:07:14.218Z,992.97
2017-05-12T02:08:14.225Z,992.94
2017-05-12T02:09:14.230Z,993.01
2017-05-12T02:10:14.237Z,992.99
2017-05-12T02:11:14.244Z,993.01
2017-05-12T02:12:14.252Z,993.04
2017-05-12T02:13:14.258Z,993.02
2017-05-12T02:14:14.265Z,993.02
2017-05-12T02:15:14.272Z,993.05
2017-05-12T02:16:14.279Z,993.04
2017-05-12T02:17:14.336Z,993.03
2017-05-12T02:18:14.290Z,993.04
2017-05-12T02:19:14.345Z,993.09
2017-05-12T02:20:14.304Z,993.09
2017-05-12T02:21:14.312Z,993.05
2017-05-12T02:22:14.319Z,993.08
2017-05-12T02:23:14.326Z,993.09
2017-05-12T02:24:14.332Z,993.07
2017-05-12T02:25:14.337Z,993.07
2017-05-12T02:26:14.347Z,993.08
2017-05-12T02:27:14.353Z,993.06
2017-05-12T02:28:14.360Z,993.06
2017-05-12T02:29:14.418Z,993.07
2017-05-12T02:30:14.375Z,993.09
2017-05-12T02:31:14.381Z,993.06
2017-05-12T02:32:14.436Z,993.09
2017-05-12T02:33:14.395Z,993.06
2017-05-12T02:34:14.402Z,993.07
2017-05-12T02:35:14.408Z,993.08
2017-05-12T02:36:14.415Z,993.08
2017-05-12T02:37:14.422Z,993.05
2017-05-12T02:38:14.428Z,993.08
2017-05-12T02:39:14.435Z,993.03
2017-05-12T02:40:14.442Z,993.04
2017-05-12T02:41:14.449Z,993.1
2017-05-12T02:42:14.455Z,993.04
2017-05-12T02:43:14.461Z,993.07
2017-05-12T02:44:14.469Z,993.07
2017-05-12T02:45:14.525Z,993.06
2017-05-12T02:46:14.533Z,993.02
2017-05-12T02:47:14.488Z,993.07
2017-05-12T02:48:14.496Z,993.04
2017-05-12T02:49:14.553Z,993.03
2017-05-12T02:50:14.510Z,993.02
2017-05-12T02:51:14.517Z,993.03
2017-05-12T02:52:14.525Z,993.07
2017-05-12T02:53:14.531Z,993.07
2017-05-12T02:54:14.537Z,993.06
2017-05-12T02:55:14.545Z,993.05
2017-05-12T02:56:14.550Z,993.03
2017-05-12T02:57:14.607Z,993
2017-05-12T02:58:14.563Z,993.01
2017-05-12T02:59:14.571Z,992.98
2017-05-12T03:00:14.575Z,993.05
2017-05-12T03:01:14.584Z,993.05
2017-05-12T03:02:14.590Z,993.04
2017-05-12T03:03:14.597Z,993.08
2017-05-12T03:04:14.604Z,993.03
2017-05-12T03:05:14.613Z,993.07
2017-05-12T03:06:14.618Z,993.07
2017-05-12T03:07:14.625Z,993.06
2017-05-12T03:08:14.631Z,993.07
2017-05-12T03:09:14.639Z,993.05
2017-05-12T03:10:14.645Z,993.08
2017-05-12T03:11:14.651Z,993.11
2017-05-12T03:12:14.657Z,993.07
2017-05-12T03:13:14.665Z,993.08
2017-05-12T03:14:14.672Z,993.06
2017-05-12T03:15:14.679Z,993.05
2017-05-12T03:16:14.685Z,993.09
2017-05-12T03:17:14.693Z,993.08
2017-05-12T03:18:14.699Z,993.06
2017-05-12T03:19:14.704Z,993.1
2017-05-12T03:20:14.713Z,993.11
2017-05-12T03:21:14.721Z,993.09
2017-05-12T03:22:14.730Z,993.1
2017-05-12T03:23:14.734Z,993.07
2017-05-12T03:24:14.741Z,993.09
2017-05-12T03:25:14.747Z,993.12
2017-05-12T03:26:14.754Z,993.09
2017-05-12T03:27:14.761Z,993.11
2017-05-12T03:28:14.768Z,993.1
2017-05-12T03:29:14.826Z,993.09
2017-05-12T03:30:14.780Z,993.08
2017-05-12T03:31:14.789Z,993.09
2017-05-12T03:32:14.796Z,993.14
2017-05-12T03:33:14.801Z,993.08
2017-05-12T03:34:14.809Z,993.14
2017-05-12T03:35:14.816Z,993.1
2017-05-12T03:36:14.822Z,993.17
2017-05-12T03:37:14.878Z,993.13
2017-05-12T03:38:14.834Z,993.17
2017-05-12T03:39:14.842Z,993.22
2017-05-12T03:40:14.852Z,993.19
2017-05-12T03:41:14.854Z,993.15
2017-05-12T03:42:14.866Z,993.22
2017-05-12T03:43:14.868Z,993.22
2017-05-12T03:44:14.874Z,993.26
2017-05-12T03:45:14.882Z,993.24
2017-05-12T03:46:14.888Z,993.3
2017-05-12T03:47:14.895Z,993.24
2017-05-12T03:48:14.902Z,993.26
2017-05-12T03:49:14.909Z,993.26
2017-05-12T03:50:14.917Z,993.26
2017-05-12T03:51:14.923Z,993.23
2017-05-12T03:52:14.929Z,993.26
2017-05-12T03:53:14.940Z,993.27
2017-05-12T03:54:14.944Z,993.25
2017-05-12T03:55:14.949Z,993.23
2017-05-12T03:56:14.958Z,993.25
2017-05-12T03:57:14.966Z,993.25
2017-05-12T03:58:14.971Z,993.28
2017-05-12T03:59:15.027Z,993.28
2017-05-12T04:00:14.983Z,993.25
2017-05-12T04:01:14.991Z,993.23
2017-05-12T04:02:14.998Z,993.27
2017-05-12T04:03:15.004Z,993.27
2017-05-12T04:04:15.012Z,993.25
2017-05-12T04:05:15.019Z,993.27
2017-05-12T04:06:15.024Z,993.23
2017-05-12T04:07:15.031Z,993.28
2017-05-12T04:08:15.090Z,993.35
2017-05-12T04:09:15.044Z,993.32
2017-05-12T04:10:15.051Z,993.31
2017-05-12T04:11:15.058Z,993.34
2017-05-12T04:12:15.114Z,993.35
2017-05-12T04:13:15.072Z,993.34
2017-05-12T04:14:15.078Z,993.33
2017-05-12T04:15:15.086Z,993.35
2017-05-12T04:16:15.093Z,993.33
2017-05-12T04:17:15.098Z,993.29
2017-05-12T04:18:15.105Z,993.33
2017-05-12T04:19:15.111Z,993.32
2017-05-12T04:20:15.170Z,993.32
2017-05-12T04:21:15.124Z,993.31
2017-05-12T04:22:15.132Z,993.32
2017-05-12T04:23:15.141Z,993.36
2017-05-12T04:24:15.146Z,993.35
2017-05-12T04:25:15.154Z,993.33
2017-05-12T04:26:15.159Z,993.31
2017-05-12T04:27:15.167Z,993.32
2017-05-12T04:28:15.172Z,993.33
2017-05-12T04:29:15.181Z,993.35
2017-05-12T04:30:15.187Z,993.37
2017-05-12T04:31:15.195Z,993.36
2017-05-12T04:32:15.200Z,993.4
2017-05-12T04:33:15.257Z,993.37
2017-05-12T04:34:15.213Z,993.42
2017-05-12T04:35:15.268Z,993.38
2017-05-12T04:36:15.228Z,993.37
2017-05-12T04:37:15.234Z,993.38
2017-05-12T04:38:15.241Z,993.41
2017-05-12T04:39:15.246Z,993.45
2017-05-12T04:40:15.554Z,993.42
2017-05-12T04:41:15.309Z,993.42
2017-05-12T04:42:15.268Z,993.42
2017-05-12T04:43:15.273Z,993.45
2017-05-12T04:44:15.280Z,993.44
2017-05-12T04:45:15.288Z,993.4
2017-05-12T04:46:15.293Z,993.42
2017-05-12T04:47:15.300Z,993.46
2017-05-12T04:48:15.308Z,993.45
2017-05-12T04:49:15.316Z,993.45
2017-05-12T04:50:15.320Z,993.47
2017-05-12T04:51:15.329Z,993.48
2017-05-12T04:52:15.335Z,993.48
2017-05-12T04:53:15.392Z,993.45
2017-05-12T04:54:15.398Z,993.45
2017-05-12T04:55:15.411Z,993.42
2017-05-12T04:56:15.362Z,993.47
2017-05-12T04:57:15.366Z,993.52
2017-05-12T04:58:15.373Z,993.5
2017-05-12T04:59:15.381Z,993.54
2017-05-12T05:00:15.388Z,993.52
2017-05-12T05:01:15.394Z,993.52
2017-05-12T05:02:15.402Z,993.52
2017-05-12T05:03:15.409Z,993.58
2017-05-12T05:04:15.416Z,993.58
2017-05-12T05:05:15.422Z,993.59
2017-05-12T05:06:15.429Z,993.62
2017-05-12T05:07:15.436Z,993.6
2017-05-12T05:08:15.442Z,993.62
2017-05-12T05:09:15.449Z,993.63
2017-05-12T05:10:15.456Z,993.63
2017-05-12T05:11:15.465Z,993.64
2017-05-12T05:12:15.470Z,993.63
2017-05-12T05:13:15.477Z,993.66
2017-05-12T05:14:15.483Z,993.66
2017-05-12T05:15:15.491Z,993.65
2017-05-12T05:16:15.496Z,993.65
2017-05-12T05:17:15.502Z,993.66
2017-05-12T05:18:15.510Z,993.65
2017-05-12T05:19:15.516Z,993.65
2017-05-12T05:20:15.522Z,993.69
2017-05-12T05:21:15.529Z,993.72
2017-05-12T05:22:15.536Z,993.68
2017-05-12T05:23:15.593Z,993.74
2017-05-12T05:24:15.550Z,993.74
2017-05-12T05:25:15.557Z,993.7
2017-05-12T05:26:15.563Z,993.76
2017-05-12T05:27:15.571Z,993.72
2017-05-12T05:28:15.578Z,993.73
2017-05-12T05:29:15.585Z,993.72
2017-05-12T05:30:15.675Z,993.69
2017-05-12T05:31:15.597Z,993.77
2017-05-12T05:32:15.605Z,993.76
2017-05-12T05:33:15.612Z,993.82
2017-05-12T05:34:15.617Z,993.8
2017-05-12T05:35:15.625Z,993.78
2017-05-12T05:36:15.631Z,993.79
2017-05-12T05:37:15.638Z,993.83
2017-05-12T05:38:15.645Z,993.81
2017-05-12T05:39:15.652Z,993.83
2017-05-12T05:40:15.659Z,993.83
2017-05-12T05:41:15.717Z,993.86
2017-05-12T05:42:15.672Z,993.87
2017-05-12T05:43:15.679Z,993.87
2017-05-12T05:44:15.686Z,993.92
2017-05-12T05:45:15.693Z,993.97
2017-05-12T05:46:15.701Z,993.98
2017-05-12T05:47:16.008Z,993.99
2017-05-12T05:48:15.713Z,994
2017-05-12T05:49:15.721Z,994.01
2017-05-12T05:50:15.727Z,993.99
2017-05-12T05:51:15.735Z,993.95
2017-05-12T05:52:15.740Z,993.97
2017-05-12T05:53:15.752Z,994.03
2017-05-12T05:54:15.757Z,993.96
2017-05-12T05:55:15.765Z,993.99
2017-05-12T05:56:15.769Z,994.02
2017-05-12T05:57:15.776Z,994
2017-05-12T05:58:15.783Z,994.08
2017-05-12T05:59:15.789Z,994.01
2017-05-12T06:00:15.798Z,994.04
2017-05-12T06:01:15.804Z,994.06
2017-05-12T06:02:15.813Z,994.06
2017-05-12T06:03:15.818Z,994.09
2017-05-12T06:04:15.826Z,994.06
2017-05-12T06:05:15.834Z,994.1
2017-05-12T06:06:15.842Z,994.08
2017-05-12T06:07:15.846Z,994.11
2017-05-12T06:08:15.853Z,994.11
2017-05-12T06:09:15.861Z,994.09
2017-05-12T06:10:15.866Z,994.13
2017-05-12T06:11:15.872Z,994.14
2017-05-12T06:12:15.881Z,994.12
2017-05-12T06:13:15.937Z,994.12
2017-05-12T06:14:15.896Z,994.13
2017-05-12T06:15:15.901Z,994.12
2017-05-12T06:16:15.909Z,994.16
2017-05-12T06:17:15.916Z,994.11
2017-05-12T06:18:15.921Z,994.16
2017-05-12T06:19:15.929Z,994.17
2017-05-12T06:20:15.936Z,994.18
2017-05-12T06:21:15.946Z,994.2
2017-05-12T06:22:15.949Z,994.19
2017-05-12T06:23:15.957Z,994.16
2017-05-12T06:24:15.966Z,994.23
2017-05-12T06:25:15.971Z,994.23
2017-05-12T06:26:15.977Z,994.21
2017-05-12T06:27:15.984Z,994.19
2017-05-12T06:28:16.042Z,994.25
2017-05-12T06:29:15.998Z,994.23
2017-05-12T06:30:16.006Z,994.26
2017-05-12T06:31:16.013Z,994.26
2017-05-12T06:32:16.017Z,994.28
2017-05-12T06:33:16.026Z,994.25
2017-05-12T06:34:16.033Z,994.31
2017-05-12T06:35:16.092Z,994.27
2017-05-12T06:36:16.048Z,994.27
2017-05-12T06:37:16.055Z,994.33
2017-05-12T06:38:16.061Z,994.31
2017-05-12T06:39:16.068Z,994.33
2017-05-12T06:40:16.075Z,994.39
2017-05-12T06:41:16.081Z,994.41
2017-05-12T06:42:16.089Z,994.44
2017-05-12T06:43:16.094Z,994.44
2017-05-12T06:44:16.102Z,994.39
2017-05-12T06:45:16.110Z,994.39
2017-05-12T06:46:16.116Z,994.47
2017-05-12T06:47:16.174Z,994.48
2017-05-12T06:48:16.130Z,994.45
2017-05-12T06:49:16.139Z,994.46
2017-05-12T06:50:16.145Z,994.47
2017-05-12T06:51:16.152Z,994.51
2017-05-12T06:52:16.158Z,994.48
2017-05-12T06:53:16.166Z,994.53
2017-05-12T06:54:16.171Z,994.5
2017-05-12T06:55:16.230Z,994.52
2017-05-12T06:56:16.187Z,994.54
2017-05-12T06:57:16.245Z,994.56
2017-05-12T06:58:16.201Z,994.54
2017-05-12T06:59:16.207Z,994.54
2017-05-12T07:00:16.215Z,994.6
2017-05-12T07:01:16.224Z,994.59
2017-05-12T07:02:16.275Z,994.57
2017-05-12T07:03:16.237Z,994.62
2017-05-12T07:04:16.244Z,994.61
2017-05-12T07:05:16.251Z,994.6
2017-05-12T07:06:16.259Z,994.61
2017-05-12T07:07:16.265Z,994.67
2017-05-12T07:08:16.274Z,994.61
2017-05-12T07:09:16.279Z,994.63
2017-05-12T07:10:16.287Z,994.66
2017-05-12T07:11:16.293Z,994.67
2017-05-12T07:12:16.301Z,994.71
2017-05-12T07:13:16.308Z,994.69
2017-05-12T07:14:16.319Z,994.74
2017-05-12T07:15:16.324Z,994.73
2017-05-12T07:16:16.331Z,994.77
2017-05-12T07:17:16.337Z,994.77
2017-05-12T07:18:16.344Z,994.76
2017-05-12T07:19:16.351Z,994.79
2017-05-12T07:20:16.359Z,994.82
2017-05-12T07:21:16.366Z,994.82
2017-05-12T07:22:16.376Z,994.86
2017-05-12T07:23:16.379Z,994.83
2017-05-12T07:24:16.388Z,994.94
2017-05-12T07:25:16.396Z,994.91
2017-05-12T07:26:16.407Z,994.95
2017-05-12T07:27:16.409Z,994.97
2017-05-12T07:28:16.417Z,994.9
2017-05-12T07:29:16.424Z,994.89
2017-05-12T07:30:16.433Z,994.89
2017-05-12T07:31:16.440Z,994.92
2017-05-12T07:32:16.447Z,994.92
2017-05-12T07:33:16.453Z,994.92
2017-05-12T07:34:16.461Z,994.92
2017-05-12T07:35:16.469Z,994.91
2017-05-12T07:36:16.476Z,994.9
2017-05-12T07:37:16.486Z,994.93
2017-05-12T07:38:16.490Z,994.93
2017-05-12T07:39:16.498Z,994.96
2017-05-12T07:40:16.506Z,994.96
2017-05-12T07:41:16.513Z,994.96
2017-05-12T07:42:16.519Z,994.89
2017-05-12T07:43:16.528Z,994.97
2017-05-12T07:44:16.536Z,994.92
2017-05-12T07:45:16.542Z,994.89
2017-05-12T07:46:16.549Z,994.98
2017-05-12T07:47:16.607Z,994.99
2017-05-12T07:48:16.564Z,995.05
2017-05-12T07:49:16.572Z,994.95
2017-05-12T07:50:16.579Z,995.02
2017-05-12T07:51:16.586Z,995.05
2017-05-12T07:52:16.593Z,995.15
2017-05-12T07:53:16.601Z,995.09
2017-05-12T07:54:16.607Z,995.07
2017-05-12T07:55:16.615Z,995.07
2017-05-12T07:56:16.621Z,995.03
2017-05-12T07:57:16.627Z,995.09
2017-05-12T07:58:16.636Z,995.09
2017-05-12T07:59:16.644Z,995.14
2017-05-12T08:00:16.701Z,995.13
2017-05-12T08:01:16.658Z,995.09
2017-05-12T08:02:16.665Z,995.1
2017-05-12T08:03:16.672Z,995.15
2017-05-12T08:04:16.680Z,995.14
2017-05-12T08:05:16.688Z,995.19
2017-05-12T08:06:16.695Z,995.18
2017-05-12T08:07:16.752Z,995.2
2017-05-12T08:08:16.708Z,995.24
2017-05-12T08:09:16.716Z,995.17
2017-05-12T08:10:16.726Z,995.15
2017-05-12T08:11:16.730Z,995.18
2017-05-12T08:12:16.737Z,995.2
2017-05-12T08:13:16.745Z,995.15
2017-05-12T08:14:16.804Z,995.13
2017-05-12T08:15:16.758Z,995.15
2017-05-12T08:16:16.818Z,995.17
2017-05-12T08:17:16.775Z,995.21
2017-05-12T08:18:16.780Z,995.2
2017-05-12T08:19:16.790Z,995.18
2017-05-12T08:20:16.797Z,995.23
2017-05-12T08:21:16.804Z,995.23
2017-05-12T08:22:16.810Z,995.27
2017-05-12T08:23:16.819Z,995.24
2017-05-12T08:24:16.826Z,995.25
2017-05-12T08:25:16.834Z,995.26
2017-05-12T08:26:16.841Z,995.27
2017-05-12T08:27:16.848Z,995.29
2017-05-12T08:28:16.857Z,995.32
2017-05-12T08:29:16.863Z,995.34
2017-05-12T08:30:16.870Z,995.35
2017-05-12T08:31:16.884Z,995.39
2017-05-12T08:32:16.885Z,995.38
2017-05-12T08:33:16.893Z,995.38
2017-05-12T08:34:16.915Z,995.34
2017-05-12T08:35:16.907Z,995.4
2017-05-12T08:36:16.915Z,995.41
2017-05-12T08:37:16.922Z,995.33
2017-05-12T08:38:16.928Z,995.34
2017-05-12T08:39:16.938Z,995.37
2017-05-12T08:40:16.943Z,995.39
2017-05-12T08:41:16.952Z,995.36
2017-05-12T08:42:16.958Z,995.39
2017-05-12T08:43:16.967Z,995.4
2017-05-12T08:44:16.973Z,995.4
2017-05-12T08:45:16.981Z,995.44
2017-05-12T08:46:16.988Z,995.45
2017-05-12T08:47:17.296Z,995.53
2017-05-12T08:48:17.003Z,995.46
2017-05-12T08:49:17.062Z,995.42
2017-05-12T08:50:17.019Z,995.47
2017-05-12T08:51:17.025Z,995.47
2017-05-12T08:52:17.083Z,995.45
2017-05-12T08:53:17.041Z,995.46
2017-05-12T08:54:17.049Z,995.52
2017-05-12T08:55:17.056Z,995.47
2017-05-12T08:56:17.063Z,995.45
2017-05-12T08:57:17.071Z,995.47
2017-05-12T08:58:17.077Z,995.46
2017-05-12T08:59:17.084Z,995.53
2017-05-12T09:00:17.092Z,995.51
2017-05-12T09:01:17.101Z,995.53
2017-05-12T09:02:17.110Z,995.46
2017-05-12T09:03:17.115Z,995.45
2017-05-12T09:04:17.124Z,995.52
2017-05-12T09:05:17.180Z,995.48
2017-05-12T09:06:17.138Z,995.45
2017-05-12T09:07:17.145Z,995.48
2017-05-12T09:08:17.152Z,995.52
2017-05-12T09:09:17.161Z,995.49
2017-05-12T09:10:17.167Z,995.5
2017-05-12T09:11:17.174Z,995.5
2017-05-12T09:12:17.182Z,995.5
2017-05-12T09:13:17.189Z,995.49
2017-05-12T09:14:17.245Z,995.5
2017-05-12T09:15:17.203Z,995.49
2017-05-12T09:16:17.209Z,995.52
2017-05-12T09:17:17.218Z,995.51
2017-05-12T09:18:17.275Z,995.5
2017-05-12T09:19:17.233Z,995.53
2017-05-12T09:20:17.241Z,995.56
2017-05-12T09:21:17.247Z,995.57
2017-05-12T09:22:17.255Z,995.56
2017-05-12T09:23:17.262Z,995.57
2017-05-12T09:24:17.269Z,995.54
2017-05-12T09:25:17.277Z,995.63
2017-05-12T09:26:17.286Z,995.6
2017-05-12T09:27:17.341Z,995.66
2017-05-12T09:28:17.299Z,995.68
2017-05-12T09:29:17.307Z,995.7
2017-05-12T09:30:17.314Z,995.71
2017-05-12T09:31:17.320Z,995.73
2017-05-12T09:32:17.327Z,995.72
2017-05-12T09:33:17.336Z,995.74
2017-05-12T09:34:17.344Z,995.72
2017-05-12T09:35:17.349Z,995.72
2017-05-12T09:36:17.358Z,995.7
2017-05-12T09:37:17.367Z,995.72
2017-05-12T09:38:17.374Z,995.74
2017-05-12T09:39:17.378Z,995.74
2017-05-12T09:40:17.387Z,995.74
2017-05-12T09:41:17.394Z,995.77
2017-05-12T09:42:17.402Z,995.79
2017-05-12T09:43:17.411Z,995.78
2017-05-12T09:44:17.419Z,995.83
2017-05-12T09:45:17.427Z,995.85
2017-05-12T09:46:17.432Z,995.89
2017-05-12T09:47:17.440Z,995.84
2017-05-12T09:48:17.448Z,995.8
2017-05-12T09:49:17.456Z,995.81
2017-05-12T09:50:17.463Z,995.8
2017-05-12T09:51:17.471Z,995.78
2017-05-12T09:52:17.477Z,995.81
2017-05-12T09:53:17.485Z,995.82
2017-05-12T09:54:17.492Z,995.73
2017-05-12T09:55:17.500Z,995.73
2017-05-12T09:56:17.509Z,995.73
2017-05-12T09:57:17.515Z,995.77
2017-05-12T09:58:17.572Z,995.8
2017-05-12T09:59:17.530Z,995.7
2017-05-12T10:00:17.537Z,995.68
2017-05-12T10:01:17.543Z,995.66
2017-05-12T10:02:17.553Z,995.62
2017-05-12T10:03:17.559Z,995.67
2017-05-12T10:04:17.567Z,995.63
2017-05-12T10:05:17.575Z,995.67
2017-05-12T10:06:17.583Z,995.65
2017-05-12T10:07:17.591Z,995.64
2017-05-12T10:08:17.596Z,995.62
2017-05-12T10:09:17.605Z,995.63
2017-05-12T10:10:17.614Z,995.64
2017-05-12T10:11:17.621Z,995.67
2017-05-12T10:12:17.627Z,995.62
2017-05-12T10:13:17.635Z,995.65
2017-05-12T10:14:17.642Z,995.68
2017-05-12T10:15:17.649Z,995.67
2017-05-12T10:16:17.658Z,995.72
2017-05-12T10:17:17.666Z,995.72
2017-05-12T10:18:17.671Z,995.72
2017-05-12T10:19:17.677Z,995.69
2017-05-12T10:20:17.691Z,995.74
2017-05-12T10:21:17.696Z,995.63
2017-05-12T10:22:17.705Z,995.69
2017-05-12T10:23:17.713Z,995.71
2017-05-12T10:24:17.722Z,995.73
2017-05-12T10:25:17.727Z,995.63
2017-05-12T10:26:17.735Z,995.69
2017-05-12T10:27:17.742Z,995.65
2017-05-12T10:28:17.750Z,995.65
2017-05-12T10:29:17.755Z,995.59
2017-05-12T10:30:17.764Z,995.55
2017-05-12T10:31:17.822Z,995.56
2017-05-12T10:32:17.779Z,995.57
2017-05-12T10:33:17.786Z,995.59
2017-05-12T10:34:17.794Z,995.54
2017-05-12T10:35:17.851Z,995.53
2017-05-12T10:36:17.860Z,995.53
2017-05-12T10:37:17.817Z,995.57
2017-05-12T10:38:17.825Z,995.56
2017-05-12T10:39:17.832Z,995.57
2017-05-12T10:40:17.840Z,995.61
2017-05-12T10:41:17.847Z,995.6
2017-05-12T10:42:17.854Z,995.58
2017-05-12T10:43:17.861Z,995.57
2017-05-12T10:44:17.921Z,995.57
2017-05-12T10:45:17.878Z,995.55
2017-05-12T10:46:17.883Z,995.56
2017-05-12T10:47:17.893Z,995.6
2017-05-12T10:48:17.901Z,995.54
2017-05-12T10:49:17.908Z,995.62
2017-05-12T10:50:17.915Z,995.58
2017-05-12T10:51:17.923Z,995.57
2017-05-12T10:52:17.929Z,995.61
2017-05-12T10:53:17.937Z,995.58
2017-05-12T10:54:17.945Z,995.55
2017-05-12T10:55:17.952Z,995.57
2017-05-12T10:56:17.959Z,995.58
2017-05-12T10:57:18.018Z,995.62
2017-05-12T10:58:17.975Z,995.7
2017-05-12T10:59:17.982Z,995.64
2017-05-12T11:00:17.990Z,995.62
2017-05-12T11:01:17.997Z,995.66
2017-05-12T11:02:18.005Z,995.69
2017-05-12T11:03:18.011Z,995.7
2017-05-12T11:04:18.020Z,995.66
2017-05-12T11:05:18.077Z,995.61
2017-05-12T11:06:18.035Z,995.59
2017-05-12T11:07:18.092Z,995.55
2017-05-12T11:08:18.099Z,995.6
2017-05-12T11:09:18.057Z,995.59
2017-05-12T11:10:18.064Z,995.51
2017-05-12T11:11:18.071Z,995.49
2017-05-12T11:12:18.079Z,995.56
2017-05-12T11:13:18.087Z,995.57
2017-05-12T11:14:18.095Z,995.53
2017-05-12T11:15:18.102Z,995.53
2017-05-12T11:16:18.110Z,995.54
2017-05-12T11:17:18.116Z,995.54
2017-05-12T11:18:18.125Z,995.6
2017-05-12T11:19:18.130Z,995.71
2017-05-12T11:20:18.140Z,995.7
2017-05-12T11:21:18.146Z,995.73
2017-05-12T11:22:18.156Z,995.71
2017-05-12T11:23:18.162Z,995.75
2017-05-12T11:24:18.170Z,995.73
2017-05-12T11:25:18.177Z,995.75
2017-05-12T11:26:18.185Z,995.71
2017-05-12T11:27:18.193Z,995.72
2017-05-12T11:28:18.200Z,995.74
2017-05-12T11:29:18.208Z,995.79
2017-05-12T11:30:18.217Z,995.76
2017-05-12T11:31:18.223Z,995.73
2017-05-12T11:32:18.231Z,995.82
2017-05-12T11:33:18.238Z,995.74
2017-05-12T11:34:18.295Z,995.79
2017-05-12T11:35:18.253Z,995.77
2017-05-12T11:36:18.260Z,995.83
2017-05-12T11:37:18.267Z,995.92
2017-05-12T11:38:18.275Z,995.99
2017-05-12T11:39:18.281Z,996.01
2017-05-12T11:40:18.290Z,995.96
2017-05-12T11:41:18.298Z,995.95
2017-05-12T11:42:18.305Z,996.01
2017-05-12T11:43:18.312Z,996.02
2017-05-12T11:44:18.319Z,996.08
2017-05-12T11:45:18.326Z,996.04
2017-05-12T11:46:18.333Z,996.07
2017-05-12T11:47:18.340Z,996.08
2017-05-12T11:48:18.347Z,996.11
2017-05-12T11:49:18.356Z,996.1
2017-05-12T11:50:18.363Z,996.18
2017-05-12T11:51:18.369Z,996.18
2017-05-12T11:52:18.376Z,996.16
2017-05-12T11:53:18.384Z,996.21
2017-05-12T11:54:18.390Z,996.19
2017-05-12T11:55:18.398Z,996.22
2017-05-12T11:56:18.405Z,996.25
2017-05-12T11:57:18.416Z,996.26
2017-05-12T11:58:18.419Z,996.27
2017-05-12T11:59:18.428Z,996.3
2017-05-12T12:00:18.435Z,996.27
2017-05-12T12:01:18.443Z,996.26
2017-05-12T12:02:18.449Z,996.25
2017-05-12T12:03:18.456Z,996.21
2017-05-12T12:04:18.514Z,996.18
2017-05-12T12:05:18.471Z,996.19
2017-05-12T12:06:18.477Z,996.2
2017-05-12T12:07:18.536Z,996.18
2017-05-12T12:08:18.492Z,996.15
2017-05-12T12:09:18.499Z,996.17
2017-05-12T12:10:18.507Z,996.16
2017-05-12T12:11:18.514Z,996.16
2017-05-12T12:12:18.522Z,996.13
2017-05-12T12:13:18.529Z,996.12
2017-05-12T12:14:18.537Z,996.17
2017-05-12T12:15:18.545Z,996.14
2017-05-12T12:16:18.551Z,996.12
2017-05-12T12:17:18.558Z,996.15
2017-05-12T12:18:18.567Z,996.12
2017-05-12T12:19:18.573Z,996.12
2017-05-12T12:20:18.582Z,996.16
2017-05-12T12:21:18.589Z,996.12
2017-05-12T12:22:18.597Z,996.09
2017-05-12T12:23:18.604Z,996.09
2017-05-12T12:24:18.610Z,996.06
2017-05-12T12:25:18.617Z,996.03
2017-05-12T12:26:18.626Z,996.09
2017-05-12T12:27:18.632Z,996.09
2017-05-12T12:28:18.640Z,996.11
2017-05-12T12:29:18.647Z,996.13
2017-05-12T12:30:18.655Z,996.14